Time;durP1;ratioP1;P1;durP2;ratioP2;P2;SDS_P1;SDS_P2;PMS_P1;PMS_P2;Temp;Humidity;BMP_temperature;BMP_pressure;BME280_temperature;BME280_humidity;BME280_pressure;Samples;Min_cycle;Max_cycle;Signal;HPM_P1;HPM_P2
2021/03/10 00:00:24;;;;;;;3.45;2.10;;;;;;;18.85;49.28;101884.69;5072785;28;20081;-74
2021/03/10 00:02:50;;;;;;;3.20;2.28;;;;;;;18.85;49.32;101879.47;5075060;28;20479;-73
2021/03/10 00:05:16;;;;;;;2.90;2.20;;;;;;;18.82;49.26;101881.19;5075340;28;20052;-73
2021/03/10 00:07:42;;;;;;;2.53;1.95;;;;;;;18.87;49.32;101884.72;5065418;28;20038;-73
2021/03/10 00:10:10;;;;;;;6.18;2.17;;;;;;;18.87;49.16;101889.97;5074663;28;20025;-73
2021/03/10 00:12:36;;;;;;;3.97;1.88;;;;;;;18.85;49.29;101892.56;5053343;28;20386;-73
2021/03/10 00:15:06;;;;;;;2.58;2.10;;;;;;;18.81;49.29;101885.56;5072900;28;20028;-73
2021/03/10 00:17:32;;;;;;;3.28;2.15;;;;;;;18.76;49.39;101874.13;5039201;28;20115;-73
2021/03/10 00:19:58;;;;;;;3.30;2.15;;;;;;;18.80;49.31;101889.03;5073797;28;20032;-73
2021/03/10 00:22:24;;;;;;;3.97;1.80;;;;;;;18.78;49.13;101882.91;5039616;28;20424;-73
2021/03/10 00:24:49;;;;;;;2.92;2.13;;;;;;;18.79;49.19;101881.16;5074358;28;20028;-73
2021/03/10 00:27:24;;;;;;;2.67;1.90;;;;;;;18.79;49.20;101887.28;5039559;28;20517;-73
2021/03/10 00:30:00;;;;;;;2.70;1.70;;;;;;;18.75;49.43;101868.88;5048576;28;20021;-73
2021/03/10 00:32:27;;;;;;;3.65;2.00;;;;;;;18.81;49.16;101888.19;5065747;28;20382;-73
2021/03/10 00:34:55;;;;;;;2.25;1.83;;;;;;;18.76;49.32;101879.38;5071157;28;20119;-73
2021/03/10 00:37:21;;;;;;;2.03;1.42;;;;;;;18.74;49.54;101872.34;5073801;28;20032;-73
2021/03/10 00:39:48;;;;;;;3.00;1.92;;;;;;;18.80;49.33;101880.28;5038562;28;20029;-73
2021/03/10 00:42:14;;;;;;;3.30;2.13;;;;;;;18.79;49.34;101881.16;5055266;28;20027;-73
2021/03/10 00:44:40;;;;;;;2.08;1.55;;;;;;;18.75;49.13;101884.59;5074829;28;20492;-73
2021/03/10 00:47:06;;;;;;;3.45;1.95;;;;;;;18.79;49.24;101887.28;5055130;28;20048;-73
2021/03/10 00:49:32;;;;;;;3.00;1.73;;;;;;;18.79;49.20;101897.75;5056256;28;20081;-73
2021/03/10 00:51:57;;;;;;;2.50;1.30;;;;;;;18.77;49.32;101890.75;5074643;28;20413;-73
2021/03/10 00:54:23;;;;;;;1.65;1.05;;;;;;;18.74;49.35;101890.69;5054271;28;20496;-73
2021/03/10 00:56:48;;;;;;;1.88;1.60;;;;;;;18.72;49.49;101882.81;5038618;28;20504;-73
2021/03/10 00:59:14;;;;;;;3.20;1.50;;;;;;;18.73;49.33;101876.72;5054882;28;20024;-73
2021/03/10 01:01:39;;;;;;;2.53;1.70;;;;;;;18.74;49.40;101885.47;5073138;28;20058;-73
2021/03/10 01:04:04;;;;;;;2.35;1.73;;;;;;;18.69;49.45;101874.94;5032332;28;20025;-73
2021/03/10 01:06:30;;;;;;;2.72;1.70;;;;;;;18.74;49.38;101885.47;5033915;28;20024;-73
2021/03/10 01:08:55;;;;;;;2.80;1.85;;;;;;;18.70;49.04;101884.53;5051375;28;20025;-73
2021/03/10 01:11:21;;;;;;;2.88;1.70;;;;;;;18.72;49.52;101890.69;5025194;28;20067;-73
2021/03/10 01:13:46;;;;;;;2.85;1.63;;;;;;;18.73;49.25;101886.31;5056198;28;20530;-73
2021/03/10 01:16:12;;;;;;;1.88;1.48;;;;;;;18.71;49.25;101874.94;5055809;28;20047;-73
2021/03/10 01:18:38;;;;;;;2.30;1.90;;;;;;;18.69;49.39;101874.94;5063521;28;20387;-73
2021/03/10 01:21:04;;;;;;;2.78;1.80;;;;;;;18.67;49.35;101866.19;5064593;28;20032;-73
2021/03/10 01:23:29;;;;;;;2.38;2.00;;;;;;;18.65;49.47;101867.91;5055568;28;20055;-73
2021/03/10 01:25:54;;;;;;;2.78;1.60;;;;;;;18.66;49.32;101876.66;5048325;28;20033;-73
2021/03/10 01:28:20;;;;;;;2.47;1.58;;;;;;;18.67;49.13;101873.16;5050483;28;20395;-73
2021/03/10 01:30:46;;;;;;;2.53;1.88;;;;;;;18.70;49.14;101883.66;5064939;28;20040;-73
2021/03/10 01:33:11;;;;;;;2.20;1.63;;;;;;;18.65;49.19;101878.38;5055383;28;20768;-73
2021/03/10 01:35:37;;;;;;;2.92;1.80;;;;;;;18.64;49.08;101875.75;5039796;28;20028;-73
2021/03/10 01:38:02;;;;;;;2.47;1.63;;;;;;;18.59;49.13;101872.19;5045534;28;20475;-73
2021/03/10 01:40:27;;;;;;;2.65;1.90;;;;;;;18.64;49.27;101866.16;5020088;28;20033;-73
2021/03/10 01:42:53;;;;;;;2.22;1.58;;;;;;;18.67;49.25;101868.81;5051357;28;20033;-73
2021/03/10 01:45:18;;;;;;;2.72;1.60;;;;;;;18.62;49.23;101853.88;5048457;28;20028;-73
2021/03/10 01:47:46;;;;;;;2.47;1.70;;;;;;;18.69;49.07;101864.47;5045281;28;20045;-73
2021/03/10 01:50:16;;;;;;;3.05;1.98;;;;;;;18.63;49.24;101848.66;5052480;28;20479;-73
2021/03/10 01:52:41;;;;;;;4.68;1.42;;;;;;;18.65;49.27;101849.56;5055804;28;20064;-73
2021/03/10 01:55:07;;;;;;;3.67;1.50;;;;;;;18.60;49.46;101842.50;5048684;28;20077;-73
2021/03/10 01:57:34;;;;;;;1.80;1.30;;;;;;;18.66;49.36;101853.06;5051424;28;20442;-73
2021/03/10 02:00:00;;;;;;;1.75;1.45;;;;;;;18.62;49.49;101843.41;5050375;28;20029;-73
2021/03/10 02:02:25;;;;;;;2.38;1.95;;;;;;;18.64;49.30;101837.34;5051538;28;20129;-73
2021/03/10 02:04:50;;;;;;;2.20;1.38;;;;;;;18.63;49.61;101843.44;5067959;28;20036;-73
2021/03/10 02:07:58;;;;;;;2.42;1.73;;;;;;;18.63;49.50;101839.94;5063116;28;20032;-73
2021/03/10 02:10:57;;;;;;;2.13;1.40;;;;;;;18.63;49.51;101846.06;5007311;28;20367;-73
2021/03/10 02:13:50;;;;;;;3.28;1.42;;;;;;;18.64;49.53;101849.56;5043429;28;20025;-73
2021/03/10 02:16:32;;;;;;;2.63;1.40;;;;;;;18.56;49.57;101837.19;5053201;28;20028;-73
2021/03/10 02:19:12;;;;;;;2.10;1.55;;;;;;;18.62;49.29;101841.66;5047667;28;20123;-73
2021/03/10 02:21:55;;;;;;;6.30;2.03;;;;;;;18.62;49.31;101840.78;5067015;28;20060;-72
2021/03/10 02:24:37;;;;;;;2.33;1.58;;;;;;;18.60;49.37;101835.53;5054521;28;20074;-73
2021/03/10 02:27:34;;;;;;;4.75;1.63;;;;;;;18.61;49.62;101833.78;5073611;28;20548;-73
2021/03/10 02:30:23;;;;;;;2.25;1.15;;;;;;;18.54;49.54;101815.38;5051550;28;20029;-72
2021/03/10 02:32:59;;;;;;;2.22;1.75;;;;;;;18.54;49.54;101820.63;5049106;28;20021;-72
2021/03/10 02:35:27;;;;;;;2.28;1.77;;;;;;;18.50;49.44;101813.56;5068061;28;20500;-72
2021/03/10 02:38:04;;;;;;;1.90;1.50;;;;;;;18.51;49.22;101812.72;5054806;28;20692;-73
2021/03/10 02:40:30;;;;;;;1.77;1.23;;;;;;;18.59;49.33;101818.06;5045269;28;20028;-72
2021/03/10 02:42:57;;;;;;;3.22;1.63;;;;;;;18.55;49.46;101813.63;5046447;28;20460;-72
2021/03/10 02:45:25;;;;;;;3.05;1.75;;;;;;;18.57;49.06;101811.88;5054795;28;20470;-73
2021/03/10 02:47:51;;;;;;;2.88;1.50;;;;;;;18.50;49.41;101797.88;5064554;28;20049;-72
2021/03/10 02:50:17;;;;;;;2.83;1.77;;;;;;;18.56;49.28;101797.06;5044120;28;20368;-72
2021/03/10 02:52:43;;;;;;;2.08;1.63;;;;;;;18.52;49.49;101787.41;5049981;28;20470;-72
2021/03/10 02:55:09;;;;;;;2.30;1.90;;;;;;;18.54;49.36;101770.84;5071085;28;20039;-72
2021/03/10 02:57:35;;;;;;;1.95;1.30;;;;;;;18.53;49.71;101770.81;5043726;28;20151;-72
2021/03/10 03:00:06;;;;;;;1.88;1.40;;;;;;;18.51;49.37;101767.31;5041518;28;20115;-73
2021/03/10 03:02:31;;;;;;;2.53;1.63;;;;;;;18.50;49.54;101766.44;5047176;28;20029;-73
2021/03/10 03:04:56;;;;;;;2.50;1.52;;;;;;;18.52;49.22;101767.34;5066366;28;20040;-72
2021/03/10 03:07:22;;;;;;;2.45;1.80;;;;;;;18.50;49.51;101761.19;5046298;28;20116;-72
2021/03/10 03:09:47;;;;;;;2.75;1.95;;;;;;;18.50;49.38;101750.72;5066434;28;20371;-72
2021/03/10 03:12:13;;;;;;;3.25;2.67;;;;;;;18.49;49.45;101748.06;5053461;28;20470;-72
2021/03/10 03:14:42;;;;;;;4.65;1.80;;;;;;;18.51;49.31;101743.75;5066318;28;20025;-72
2021/03/10 03:17:08;;;;;;;4.70;1.85;;;;;;;18.47;49.42;101728.84;5071049;28;20075;-73
2021/03/10 03:19:34;;;;;;;2.63;1.48;;;;;;;18.40;49.35;101720.06;5060960;28;20363;-73
2021/03/10 03:22:01;;;;;;;2.85;1.42;;;;;;;18.41;49.46;101723.56;5034339;28;20028;-72
2021/03/10 03:24:28;;;;;;;2.78;1.80;;;;;;;18.48;49.57;101731.47;5072243;28;20035;-72
2021/03/10 03:26:55;;;;;;;2.55;1.83;;;;;;;18.46;49.49;101729.72;5056114;28;20033;-73
2021/03/10 03:29:21;;;;;;;2.67;1.73;;;;;;;18.47;49.42;101726.22;5070705;28;20063;-72
2021/03/10 03:31:47;;;;;;;2.25;1.98;;;;;;;18.39;49.36;101720.94;5052494;28;20060;-72
2021/03/10 03:34:13;;;;;;;2.38;1.70;;;;;;;18.48;49.11;101736.72;5075495;28;20036;-72
2021/03/10 03:36:38;;;;;;;2.88;1.90;;;;;;;18.40;49.43;101727.06;5057821;28;20035;-72
2021/03/10 03:39:04;;;;;;;2.92;1.80;;;;;;;18.47;49.53;101748.06;5045141;28;20379;-73
2021/03/10 03:41:31;;;;;;;2.97;2.00;;;;;;;18.46;49.51;101748.91;5075672;28;20059;-72
2021/03/10 03:43:59;;;;;;;2.55;1.90;;;;;;;18.48;49.33;101754.19;5073586;28;20056;-73
2021/03/10 03:46:25;;;;;;;3.20;2.63;;;;;;;18.40;49.29;101745.38;5053902;28;20449;-73
2021/03/10 03:48:51;;;;;;;3.33;2.10;;;;;;;18.44;49.17;101750.63;5054580;28;20112;-72
2021/03/10 03:51:27;;;;;;;3.13;2.30;;;;;;;18.38;49.52;101732.28;5040888;28;20497;-72
2021/03/10 03:54:04;;;;;;;2.80;1.92;;;;;;;18.39;49.47;101734.03;5065294;28;20029;-72
2021/03/10 03:56:30;;;;;;;4.70;1.98;;;;;;;18.41;49.41;101739.28;5057728;28;20441;-72
2021/03/10 03:58:57;;;;;;;2.55;1.75;;;;;;;18.41;49.62;101740.16;5028856;28;20566;-72
2021/03/10 04:01:23;;;;;;;2.47;2.00;;;;;;;18.39;49.49;101735.78;5054416;28;20068;-72
2021/03/10 04:03:48;;;;;;;3.63;1.90;;;;;;;18.41;49.49;101739.28;5048210;28;20107;-72
2021/03/10 04:06:15;;;;;;;3.35;2.60;;;;;;;18.38;49.47;101734.88;5047648;28;20078;-72
2021/03/10 04:08:41;;;;;;;2.05;1.75;;;;;;;18.42;49.43;101734.06;5052468;28;20032;-72
2021/03/10 04:11:08;;;;;;;3.20;2.33;;;;;;;18.41;49.38;101731.44;5057281;28;20033;-73
2021/03/10 04:13:33;;;;;;;2.50;2.10;;;;;;;18.36;49.58;101718.28;5048736;28;20044;-72
2021/03/10 04:15:59;;;;;;;3.33;2.70;;;;;;;18.34;49.88;101714.75;5041297;28;20076;-72
2021/03/10 04:18:24;;;;;;;3.03;2.03;;;;;;;18.36;49.61;101709.53;5075665;28;20085;-72
2021/03/10 04:20:50;;;;;;;3.95;2.72;;;;;;;18.39;49.52;101717.44;5054307;28;20043;-72
2021/03/10 04:23:15;;;;;;;3.35;2.50;;;;;;;18.31;49.23;101692.91;5029482;28;20035;-72
2021/03/10 04:25:41;;;;;;;2.70;2.28;;;;;;;18.36;49.42;101697.31;5054255;28;20107;-73
2021/03/10 04:28:06;;;;;;;2.67;2.42;;;;;;;18.38;49.45;101700.84;5049270;28;20036;-72
2021/03/10 04:30:32;;;;;;;4.53;2.40;;;;;;;18.32;49.22;101689.41;5073867;28;20028;-72
2021/03/10 04:32:58;;;;;;;3.28;2.53;;;;;;;18.29;49.26;101685.06;5064993;28;20024;-72
2021/03/10 04:35:23;;;;;;;3.00;2.60;;;;;;;18.35;49.56;101692.94;5037791;28;20386;-72
2021/03/10 04:37:49;;;;;;;3.13;2.45;;;;;;;18.34;49.35;101688.56;5052715;28;20368;-72
2021/03/10 04:40:15;;;;;;;4.57;2.40;;;;;;;18.36;49.21;101694.72;5051088;28;20048;-72
2021/03/10 04:42:40;;;;;;;3.55;3.20;;;;;;;18.34;49.32;101695.56;5052565;28;20082;-72
2021/03/10 04:45:12;;;;;;;2.80;2.25;;;;;;;18.35;49.42;101687.72;5057586;28;20038;-72
2021/03/10 04:47:37;;;;;;;3.45;2.75;;;;;;;18.31;49.67;101683.31;5051376;28;20064;-72
2021/03/10 04:50:06;;;;;;;3.70;2.75;;;;;;;18.32;49.24;101686.81;5055139;28;20067;-72
2021/03/10 04:52:32;;;;;;;3.35;2.53;;;;;;;18.33;49.41;101688.56;5063445;28;20597;-73
2021/03/10 04:54:57;;;;;;;3.05;2.58;;;;;;;18.33;49.38;101685.94;5054617;28;20055;-72
2021/03/10 04:57:23;;;;;;;3.13;2.47;;;;;;;18.29;49.45;101673.72;5064627;28;20032;-73
2021/03/10 04:59:48;;;;;;;3.53;2.65;;;;;;;18.29;49.17;101681.56;5040179;28;20107;-72
2021/03/10 05:02:13;;;;;;;3.58;2.95;;;;;;;18.28;49.25;101677.19;5050936;28;20120;-72
2021/03/10 05:04:39;;;;;;;4.65;3.10;;;;;;;18.27;49.40;101675.44;5051249;28;20033;-72
2021/03/10 05:07:04;;;;;;;4.22;2.55;;;;;;;18.31;49.23;101683.31;5050155;28;20056;-72
2021/03/10 05:09:30;;;;;;;3.33;2.88;;;;;;;18.27;49.54;101673.69;5067096;28;20025;-72
2021/03/10 05:11:56;;;;;;;3.47;2.55;;;;;;;18.31;49.57;101679.81;5062718;28;20095;-73
2021/03/10 05:14:21;;;;;;;3.97;2.78;;;;;;;18.25;49.31;101670.19;5048013;28;20021;-72
2021/03/10 05:16:46;;;;;;;5.10;3.47;;;;;;;18.25;49.45;101672.78;5052771;28;20029;-72
2021/03/10 05:19:12;;;;;;;3.83;3.13;;;;;;;18.27;49.43;101676.31;5033593;28;20462;-73
2021/03/10 05:21:37;;;;;;;4.25;3.50;;;;;;;18.26;49.54;101669.31;5064524;28;20116;-72
2021/03/10 05:24:03;;;;;;;3.47;3.10;;;;;;;18.30;49.42;101678.09;5051155;28;22032;-72
2021/03/10 05:26:28;;;;;;;4.25;2.50;;;;;;;18.30;49.51;101675.47;5068640;28;20063;-73
2021/03/10 05:28:53;;;;;;;3.78;3.15;;;;;;;18.28;49.50;101677.19;5071405;28;20425;-72
2021/03/10 05:31:19;;;;;;;3.55;2.88;;;;;;;18.24;49.42;101667.53;5073696;28;20036;-73
2021/03/10 05:33:44;;;;;;;3.40;3.10;;;;;;;18.25;49.49;101682.38;5071954;28;20025;-73
2021/03/10 05:36:09;;;;;;;4.65;3.00;;;;;;;18.23;49.40;101674.50;5055872;28;20028;-73
2021/03/10 05:38:35;;;;;;;4.88;3.20;;;;;;;18.28;49.23;101679.81;5034828;28;20035;-73
2021/03/10 05:41:00;;;;;;;5.00;3.75;;;;;;;18.27;49.45;101688.53;5069859;28;20033;-72
2021/03/10 05:43:26;;;;;;;3.55;2.80;;;;;;;18.23;49.27;101671.91;5036137;28;20052;-72
2021/03/10 05:45:52;;;;;;;4.85;3.63;;;;;;;18.34;48.99;101683.34;5054237;28;20486;-73
2021/03/10 05:48:17;;;;;;;3.88;2.83;;;;;;;18.43;48.84;101669.47;5068236;28;20052;-73
2021/03/10 05:50:42;;;;;;;4.25;3.47;;;;;;;18.44;48.78;101658.97;5071876;28;20699;-72
2021/03/10 05:53:10;;;;;;;6.82;2.90;;;;;;;18.50;48.88;101668.63;5040163;28;20033;-76
2021/03/10 05:55:38;;;;;;;5.70;3.05;;;;;;;18.49;48.69;101653.78;5054941;28;20036;-75
2021/03/10 05:58:11;;;;;;;2.88;2.53;;;;;;;18.54;48.68;101647.75;5013521;28;20485;-73
2021/03/10 06:00:42;;;;;;;3.90;2.88;;;;;;;18.61;48.60;101659.16;5069037;28;20028;-73
2021/03/10 06:03:08;;;;;;;4.13;3.22;;;;;;;18.56;48.61;101645.97;5072034;28;20036;-73
2021/03/10 06:05:33;;;;;;;3.10;2.65;;;;;;;18.56;48.76;101632.03;5053773;28;20185;-78
2021/03/10 06:08:03;;;;;;;4.30;3.08;;;;;;;18.66;48.49;101638.25;5056240;28;20032;-78
2021/03/10 06:10:38;;;;;;;3.60;2.80;;;;;;;18.70;48.50;101640.00;5053342;28;20031;-78
2021/03/10 06:13:04;;;;;;;4.80;3.15;;;;;;;18.67;48.51;101643.50;5038703;28;20024;-78
2021/03/10 06:15:39;;;;;;;3.25;2.80;;;;;;;18.68;48.44;101645.25;5062600;28;20359;-78
2021/03/10 06:18:04;;;;;;;3.03;2.40;;;;;;;18.63;48.39;101612.00;5055811;28;20021;-78
2021/03/10 06:20:31;;;;;;;4.00;2.47;;;;;;;18.77;48.40;101628.69;5051721;28;20482;-78
2021/03/10 06:22:57;;;;;;;4.05;2.90;;;;;;;18.84;48.21;101635.72;5048121;28;20039;-79
2021/03/10 06:25:24;;;;;;;4.40;3.05;;;;;;;18.84;48.51;101635.72;5051617;28;20036;-78
2021/03/10 06:27:57;;;;;;;6.03;3.78;;;;;;;18.74;48.58;101611.22;5066174;28;20040;-78
2021/03/10 06:30:43;;;;;;;7.20;4.35;;;;;;;18.80;48.69;101632.22;5053080;28;20020;-77
2021/03/10 06:33:09;;;;;;;4.32;3.00;;;;;;;18.80;48.58;101627.00;5050696;28;20098;-76
2021/03/10 06:35:36;;;;;;;7.32;4.03;;;;;;;18.78;48.76;101630.47;5066472;28;20039;-78
2021/03/10 06:38:20;;;;;;;5.38;3.63;;;;;;;18.70;48.58;101621.66;5058045;28;20026;-79
2021/03/10 06:40:53;;;;;;;5.90;3.55;;;;;;;18.86;48.74;101639.22;5072014;28;20482;-78
2021/03/10 06:43:19;;;;;;;7.57;3.80;;;;;;;18.74;48.71;101618.19;5055100;28;20044;-76
2021/03/10 06:45:45;;;;;;;6.88;4.55;;;;;;;18.84;48.97;101644.47;5038877;28;20439;-77
2021/03/10 06:48:22;;;;;;;7.35;4.10;;;;;;;18.80;48.87;101629.59;5054754;28;20106;-78
2021/03/10 06:50:48;;;;;;;6.18;4.25;;;;;;;18.84;48.87;101620.88;5068817;28;20033;-77
2021/03/10 06:53:14;;;;;;;8.80;3.85;;;;;;;18.81;49.10;101626.13;5071543;28;20043;-76
2021/03/10 06:55:45;;;;;;;5.28;3.60;;;;;;;18.82;49.08;101633.13;5056226;28;20032;-76
2021/03/10 06:58:20;;;;;;;3.97;3.35;;;;;;;18.84;48.92;101630.47;5065191;28;20123;-76
2021/03/10 07:00:45;;;;;;;7.85;4.13;;;;;;;18.90;49.03;101630.53;5056695;28;20119;-76
2021/03/10 07:03:11;;;;;;;7.50;4.18;;;;;;;18.82;49.06;101622.63;5073570;28;20071;-76
2021/03/10 07:05:36;;;;;;;7.60;3.20;;;;;;;18.83;48.84;101616.50;5038603;28;20040;-77
2021/03/10 07:08:06;;;;;;;5.22;3.30;;;;;;;18.87;49.03;101612.16;5055427;28;20032;-76
2021/03/10 07:10:32;;;;;;;8.02;4.30;;;;;;;18.93;48.95;101622.69;5073298;28;20463;-76
2021/03/10 07:12:59;;;;;;;6.63;3.65;;;;;;;18.92;49.17;101619.19;5054736;28;20043;-76
2021/03/10 07:15:26;;;;;;;6.25;3.17;;;;;;;18.91;48.93;101621.81;5055367;28;20033;-76
2021/03/10 07:17:51;;;;;;;8.00;3.60;;;;;;;18.94;48.98;101615.72;5055039;28;20052;-76
2021/03/10 07:20:18;;;;;;;5.32;3.70;;;;;;;18.99;48.89;101625.34;5054796;28;20023;-76
2021/03/10 07:23:09;;;;;;;3.85;3.30;;;;;;;18.97;48.83;101616.56;5054017;28;20486;-75
2021/03/10 07:25:40;;;;;;;5.53;3.50;;;;;;;19.05;48.85;101630.63;5054399;28;20024;-73
2021/03/10 07:28:13;;;;;;;4.57;3.28;;;;;;;19.11;48.55;101628.00;5042425;28;20037;-76
2021/03/10 07:30:40;;;;;;;4.72;3.15;;;;;;;19.07;48.73;101631.50;5052985;28;20035;-75
2021/03/10 07:33:07;;;;;;;4.82;3.45;;;;;;;19.05;48.57;101628.00;5054601;28;20441;-75
2021/03/10 07:35:44;;;;;;;4.20;3.40;;;;;;;19.11;48.71;101629.75;5047220;28;20494;-76
2021/03/10 07:38:10;;;;;;;3.85;3.33;;;;;;;19.11;48.63;101625.41;5052869;28;20112;-76
2021/03/10 07:40:35;;;;;;;6.18;3.08;;;;;;;19.02;48.74;101620.13;5052868;28;20120;-76
2021/03/10 07:43:00;;;;;;;5.78;3.08;;;;;;;19.10;48.71;101626.25;5034659;28;20084;-76
2021/03/10 07:45:29;;;;;;;4.80;3.75;;;;;;;19.16;48.59;101622.81;5033675;28;20125;-76
2021/03/10 07:47:57;;;;;;;4.15;3.20;;;;;;;19.12;48.73;101621.03;5066661;28;20045;-76
2021/03/10 07:50:43;;;;;;;4.07;3.28;;;;;;;19.11;48.66;101621.91;5071199;28;20112;-75
2021/03/10 07:53:09;;;;;;;4.93;3.88;;;;;;;19.17;48.41;101619.31;5052875;28;20057;-75
2021/03/10 07:55:45;;;;;;;5.07;3.75;;;;;;;19.13;48.67;101615.78;5064098;28;20505;-75
2021/03/10 07:58:11;;;;;;;4.05;2.97;;;;;;;19.08;48.51;101619.28;5072368;28;20056;-75
2021/03/10 08:00:38;;;;;;;5.32;3.83;;;;;;;19.15;48.59;101627.16;5072417;28;20059;-75
2021/03/10 08:03:03;;;;;;;4.32;3.08;;;;;;;19.20;48.52;101625.47;5064834;28;20048;-74
2021/03/10 08:05:29;;;;;;;4.85;3.30;;;;;;;19.18;48.44;101623.69;5046418;28;20076;-75
2021/03/10 08:08:09;;;;;;;3.28;2.97;;;;;;;19.15;48.62;101619.31;5030856;28;20047;-75
2021/03/10 08:10:35;;;;;;;3.42;2.92;;;;;;;19.22;48.34;101617.56;5038299;28;20021;-76
2021/03/10 08:13:13;;;;;;;3.20;2.90;;;;;;;19.16;48.34;101602.72;5064272;28;20036;-75
2021/03/10 08:15:38;;;;;;;3.80;3.13;;;;;;;19.15;48.37;101600.06;5072091;28;20078;-75
2021/03/10 08:18:04;;;;;;;6.68;4.40;;;;;;;19.18;48.44;101597.47;5057758;28;20428;-75
2021/03/10 08:20:37;;;;;;;4.63;3.20;;;;;;;19.18;48.22;101582.63;5057841;28;20029;-75
2021/03/10 08:23:03;;;;;;;3.80;3.28;;;;;;;19.19;48.36;101604.47;5072725;28;20059;-75
2021/03/10 08:25:29;;;;;;;7.60;3.67;;;;;;;19.18;48.60;101605.34;5072199;28;20445;-75
2021/03/10 08:27:56;;;;;;;8.57;3.92;;;;;;;19.20;48.30;101595.75;5057821;28;20020;-75
2021/03/10 08:30:24;;;;;;;4.10;3.28;;;;;;;19.26;48.37;101609.72;5056602;28;20098;-75
2021/03/10 08:32:50;;;;;;;3.55;3.13;;;;;;;19.22;48.34;101607.97;5041094;28;20075;-75
2021/03/10 08:35:20;;;;;;;3.47;2.97;;;;;;;19.26;48.36;101595.75;5054478;28;20025;-75
2021/03/10 08:37:55;;;;;;;4.57;2.70;;;;;;;19.13;48.08;101563.38;5055631;28;20029;-75
2021/03/10 08:40:25;;;;;;;4.57;3.33;;;;;;;19.16;47.99;101565.13;5051289;28;20033;-75
2021/03/10 08:42:50;;;;;;;4.03;3.33;;;;;;;19.23;48.33;101583.50;5041008;28;20093;-75
2021/03/10 08:45:24;;;;;;;4.28;3.33;;;;;;;19.25;48.24;101568.66;5043606;28;20032;-75
2021/03/10 08:48:08;;;;;;;4.80;3.08;;;;;;;19.25;48.26;101565.16;5047661;28;20065;-76
2021/03/10 08:50:35;;;;;;;3.30;3.00;;;;;;;19.26;48.36;101565.16;5069132;28;20028;-75
2021/03/10 08:53:01;;;;;;;3.42;3.10;;;;;;;19.32;48.25;101563.44;5055555;28;20388;-75
2021/03/10 08:55:27;;;;;;;3.17;2.70;;;;;;;19.33;48.04;101563.44;5051925;28;20119;-75
2021/03/10 08:57:53;;;;;;;4.07;3.25;;;;;;;19.31;48.02;101564.31;5057155;28;20082;-76
2021/03/10 09:00:25;;;;;;;4.15;2.72;;;;;;;19.27;48.19;101563.41;5073227;28;20032;-76
2021/03/10 09:02:51;;;;;;;4.20;3.55;;;;;;;19.23;48.47;101564.25;5071214;28;20029;-76
2021/03/10 09:05:28;;;;;;;4.43;3.08;;;;;;;19.15;48.27;101548.50;5057441;28;20032;-75
2021/03/10 09:07:54;;;;;;;3.65;3.05;;;;;;;19.15;48.39;101545.03;5067571;28;20360;-75
2021/03/10 09:10:21;;;;;;;3.65;2.95;;;;;;;19.12;48.40;101550.25;5056981;28;20032;-75
2021/03/10 09:12:49;;;;;;;3.33;2.97;;;;;;;19.13;48.31;101541.50;5074951;28;20482;-75
2021/03/10 09:15:17;;;;;;;6.50;3.60;;;;;;;19.10;48.52;101547.59;5073961;28;20035;-75
2021/03/10 09:17:42;;;;;;;3.00;2.67;;;;;;;19.08;48.66;101546.75;5073821;28;20029;-75
2021/03/10 09:20:22;;;;;;;3.40;2.78;;;;;;;19.07;48.44;101544.13;5085207;28;20074;-75
2021/03/10 09:22:48;;;;;;;3.67;2.80;;;;;;;19.04;48.72;101538.88;5094980;28;20042;-75
2021/03/10 09:25:20;;;;;;;3.40;2.53;;;;;;;18.98;48.65;101538.81;5057350;28;20394;-75
2021/03/10 09:27:45;;;;;;;4.90;3.35;;;;;;;19.03;48.52;101544.97;5073601;28;20359;-75
2021/03/10 09:30:15;;;;;;;4.05;3.20;;;;;;;19.02;47.94;101540.59;5058080;28;20032;-75
2021/03/10 09:32:45;;;;;;;5.93;2.80;;;;;;;18.99;48.75;101538.84;5065826;28;20075;-75
2021/03/10 09:35:10;;;;;;;3.60;2.85;;;;;;;18.99;48.72;101530.09;5073955;28;20546;-75
2021/03/10 09:37:46;;;;;;;3.97;3.28;;;;;;;18.96;48.56;101525.72;5059446;28;20056;-75
2021/03/10 09:40:13;;;;;;;3.95;3.20;;;;;;;18.92;48.66;101513.47;5070584;28;20100;-75
2021/03/10 09:42:38;;;;;;;3.95;2.97;;;;;;;18.96;48.33;101520.47;5053476;28;20562;-75
2021/03/10 09:45:04;;;;;;;3.70;3.25;;;;;;;18.96;48.62;101525.72;5051258;28;20120;-75
2021/03/10 09:47:30;;;;;;;4.60;3.10;;;;;;;18.96;48.72;101519.59;5071927;28;20142;-73
2021/03/10 09:49:57;;;;;;;8.32;3.35;;;;;;;18.98;48.55;101513.50;5055946;28;20029;-73
2021/03/10 09:52:35;;;;;;;3.72;3.05;;;;;;;18.98;48.63;101515.22;5053143;28;20147;-76
2021/03/10 09:55:04;;;;;;;3.35;2.72;;;;;;;19.09;48.45;101517.03;5046902;28;20032;-75
2021/03/10 09:57:29;;;;;;;5.95;3.22;;;;;;;19.08;48.47;101507.44;5073397;28;20021;-75
2021/03/10 09:59:56;;;;;;;4.93;3.63;;;;;;;19.07;48.55;101505.69;5055806;28;20101;-74
2021/03/10 10:02:23;;;;;;;5.28;3.38;;;;;;;19.16;48.43;101512.69;5055847;28;20032;-74
2021/03/10 10:05:07;;;;;;;3.97;3.20;;;;;;;19.21;48.06;101516.22;5056096;28;20078;-74
2021/03/10 10:07:32;;;;;;;4.78;3.22;;;;;;;19.23;48.41;101517.94;5050755;28;20116;-74
2021/03/10 10:09:58;;;;;;;4.07;3.55;;;;;;;19.20;48.19;101510.09;5055285;28;20127;-74
2021/03/10 10:12:24;;;;;;;3.25;2.30;;;;;;;19.29;48.34;101514.47;5070575;28;20047;-74
2021/03/10 10:14:49;;;;;;;3.10;2.78;;;;;;;19.27;48.18;101505.72;5028005;28;20120;-74
2021/03/10 10:17:15;;;;;;;4.35;2.78;;;;;;;19.25;48.18;101495.22;5051793;28;20060;-74
2021/03/10 10:19:41;;;;;;;2.65;2.10;;;;;;;19.26;48.23;101499.59;5053707;28;20086;-74
2021/03/10 10:22:07;;;;;;;2.95;2.33;;;;;;;19.32;48.19;101487.38;5073424;28;20466;-74
2021/03/10 10:24:33;;;;;;;3.50;2.80;;;;;;;19.37;48.18;101491.75;5066785;28;20104;-74
2021/03/10 10:26:58;;;;;;;3.05;2.53;;;;;;;19.32;48.02;101484.75;5038286;28;20040;-74
2021/03/10 10:29:24;;;;;;;2.60;2.35;;;;;;;19.36;48.07;101490.00;5054470;28;20024;-74
2021/03/10 10:31:49;;;;;;;3.35;2.72;;;;;;;19.41;48.00;101480.41;5043922;28;20036;-74
2021/03/10 10:34:15;;;;;;;3.15;2.63;;;;;;;19.38;48.01;101472.53;5029883;28;20036;-74
2021/03/10 10:36:40;;;;;;;3.08;2.45;;;;;;;19.28;48.17;101452.41;5069085;28;20032;-75
2021/03/10 10:39:05;;;;;;;4.00;2.65;;;;;;;19.42;47.99;101458.53;5061810;28;20039;-74
2021/03/10 10:41:31;;;;;;;3.53;2.42;;;;;;;19.46;47.92;101464.69;5040397;28;20544;-74
2021/03/10 10:43:56;;;;;;;2.58;2.35;;;;;;;19.44;48.12;101459.44;5075344;28;20021;-74
2021/03/10 10:46:22;;;;;;;3.35;2.40;;;;;;;19.47;48.03;101450.69;5065944;28;20156;-74
2021/03/10 10:48:47;;;;;;;2.92;2.10;;;;;;;19.48;47.90;101452.41;5072781;28;20513;-74
2021/03/10 10:51:13;;;;;;;2.33;2.03;;;;;;;19.49;47.82;101454.19;5070380;28;20024;-74
2021/03/10 10:53:38;;;;;;;4.15;2.40;;;;;;;19.45;47.94;101434.06;5048886;28;20120;-74
2021/03/10 10:56:04;;;;;;;2.83;1.83;;;;;;;19.48;47.91;101440.16;5030740;28;20393;-74
2021/03/10 10:58:29;;;;;;;2.75;2.50;;;;;;;19.50;48.00;101435.84;5072306;28;20024;-74
2021/03/10 11:00:54;;;;;;;2.83;2.45;;;;;;;19.49;47.65;101438.47;5047299;28;20041;-74
2021/03/10 11:03:22;;;;;;;3.72;2.90;;;;;;;19.50;48.01;101433.22;5017931;28;20036;-74
2021/03/10 11:05:48;;;;;;;2.70;2.40;;;;;;;19.56;47.86;101442.84;5038820;28;20119;-74
2021/03/10 11:08:13;;;;;;;2.33;2.00;;;;;;;19.50;47.76;101446.34;5072817;28;20074;-74
2021/03/10 11:10:38;;;;;;;2.70;2.20;;;;;;;19.46;47.85;101425.34;5054717;28;20025;-74
2021/03/10 11:13:04;;;;;;;3.20;2.30;;;;;;;19.56;47.79;101429.72;5071835;28;20111;-74
2021/03/10 11:15:29;;;;;;;2.70;2.35;;;;;;;19.52;47.68;101420.97;5070474;28;20037;-75
2021/03/10 11:17:56;;;;;;;2.83;2.05;;;;;;;19.52;47.73;101418.34;5040874;28;20059;-75
2021/03/10 11:20:21;;;;;;;3.45;2.80;;;;;;;19.55;47.78;101415.75;5046714;28;20052;-74
2021/03/10 11:22:47;;;;;;;3.08;2.30;;;;;;;19.57;47.66;101413.13;5072485;28;20039;-74
2021/03/10 11:25:12;;;;;;;4.47;2.65;;;;;;;19.61;47.68;101425.34;5072528;28;20064;-74
2021/03/10 11:27:38;;;;;;;2.70;2.08;;;;;;;19.59;47.86;101419.25;5072563;28;20044;-74